Airfield :
LOGIN :

Register | Disclaimer

   EN    FR    IT 

 










Legend :    VFR   Marginal VFR   IFR   Intensive IFR   Very Intensive IFR
Visi :
Ceiling :
>= 8 km
>= 3000ft
5 to 8 km
1000 to 3000 ft
1500m to 5 km
500 to 1000 ft
800 to 1500m
200 to 500 ft
< 800m
< 200 ft
Symbols :   Thunderstorms  Fog  Heavy snow  Heavy precipitations  Wind > 20 kt
SIGMETs :     Misc.  Thunderstorms  Icing  Turbulence  Mountain Waves  Volcanic Ashes






- Airport Elevation : 614 ft
- IATA code : CRL


EBCI - Charleroi

CURRENT METAR :
  • 300220Z VRB01KT 0500 R24/1400D FG BKN001 04/04 Q1023 NOSIG

EXPIRED METARs :
  • 300150Z VRB01KT 0300 R24/1600D FG BKN001 04/04 Q1022 NOSIG
  • 300120Z VRB02KT 0200 R24/1800U FG BKN001 04/03 Q1023 NOSIG
  • 300020Z VRB02KT 0200 R24/0500N FG BKN001 03/03 Q1023 NOSIG

TAF TAF EBCI
Valid from the 30 at 00:00 until the 01 at 06:00 UTC


292311Z 3000/0106 VRB03KT 0250 FG OVC001
BECMG 3010/3012 2000 BR BKN003
BECMG 3011/3013 6000 NSW BKN008
TEMPO 3020/0106 3000 BR
PROB30
TEMPO 3022/0106 0350 FG OVC001



MET'MAP, your aeronautical weather chart ! - Copyright ORBIFLY December 2007 - Disclaimer

ORBIFLY MET'MAP TEAM :

Programming & Development : Alexandra Zaïnal
Original concept : Baudouin d'Aumeries
Technical & hardware support : Manuel Goepfert
Assistance : Marc-Olivier Méhu




SOURCES & CREDITS :

   NOAA